Fremont, North Carolina
Current Conditions -  °F | °C
As of 4:55 AM on Friday 31 Oct 2014 (Local Time) from KGWW Reporting Station
Clear Clear  
Wind Chill: 46°   Ceiling: Unl
Heat Index: 46°   Visibility: 10mi
Dew Point: 45°   Wind: 3mph
Humidity: 97%   Direction: 360°N
Pressure: 29.95"   Gusts: NA
Location:  35.55°N, 77.97°W
Report Text: KGWW 310855Z AUTO 36003KT 10SM CLR 08/07 A2995 RMK AO2 T00750070
Loading
Personal Weather Stations






























Interactive Weather Map
Tropical Storm Tracking
New forecast layout! Learn more

10-Day Weather Forecast

Advertisements
Track Severe Weather on mobile